Time;durP1;ratioP1;P1;durP2;ratioP2;P2;SDS_P1;SDS_P2;PMS_P1;PMS_P2;Temp;Humidity;BMP_temperature;BMP_pressure;BME280_temperature;BME280_humidity;BME280_pressure;Samples;Min_cycle;Max_cycle;Signal;HPM_P1;HPM_P2
2023/01/26 00:01:30;;;;;;;;;69.50;50.25;;;;;5.15;100.00;101835.28;4972861;28;45205;-83
2023/01/26 00:03:56;;;;;;;;;63.25;51.75;;;;;5.12;100.00;101816.66;4972192;28;45428;-82
2023/01/26 00:06:23;;;;;;;;;61.75;50.00;;;;;5.18;100.00;101822.28;4954283;28;48067;-83
2023/01/26 00:08:51;;;;;;;;;47.00;41.50;;;;;5.04;100.00;101820.63;4966900;28;45391;-83
2023/01/26 00:11:19;;;;;;;;;66.50;51.25;;;;;4.94;100.00;101828.03;4944992;28;45377;-82
2023/01/26 00:13:48;;;;;;;;;66.25;51.00;;;;;4.87;100.00;101814.44;4936583;28;45481;-82
2023/01/26 00:16:14;;;;;;;;;57.50;46.50;;;;;4.91;100.00;101812.06;4952074;28;46398;-83
2023/01/26 00:18:40;;;;;;;;;66.50;51.50;;;;;4.87;100.00;101810.09;4951973;28;45421;-83
2023/01/26 00:21:08;;;;;;;;;66.25;51.50;;;;;4.87;100.00;101807.44;4935070;28;45335;-83
2023/01/26 00:23:34;;;;;;;;;64.75;51.50;;;;;4.77;100.00;101781.41;4951878;28;45465;-82
2023/01/26 00:26:00;;;;;;;;;66.25;52.25;;;;;4.81;100.00;101788.66;4950641;28;45424;-83
2023/01/26 00:28:28;;;;;;;;;69.25;54.50;;;;;4.89;100.00;101784.72;4932049;28;45418;-82
2023/01/26 00:31:04;;;;;;;;;65.50;49.25;;;;;4.93;100.00;101791.06;4950205;28;45445;-82
2023/01/26 00:33:30;;;;;;;;;67.25;55.00;;;;;4.75;100.00;101778.69;4932097;28;45481;-82
2023/01/26 00:35:56;;;;;;;;;66.25;52.25;;;;;4.69;100.00;101788.00;4931557;28;47782;-82
2023/01/26 00:38:22;;;;;;;;;62.50;48.75;;;;;4.60;100.00;101770.88;4948354;28;45546;-83
2023/01/26 00:40:49;;;;;;;;;68.00;52.75;;;;;4.67;100.00;101774.75;4931245;28;45438;-83
2023/01/26 00:43:14;;;;;;;;;70.50;51.75;;;;;4.63;100.00;101777.13;4948972;28;45428;-82
2023/01/26 00:45:40;;;;;;;;;70.50;52.00;;;;;4.65;100.00;101771.13;4949329;28;45511;-82
2023/01/26 00:48:06;;;;;;;;;71.75;58.50;;;;;4.72;100.00;101756.53;4948942;28;44788;-82
2023/01/26 00:50:32;;;;;;;;;62.00;48.25;;;;;4.72;100.00;101764.44;4933958;28;45442;-81
2023/01/26 00:52:58;;;;;;;;;68.00;53.00;;;;;4.75;100.00;101756.72;4933739;28;45426;-82
2023/01/26 00:55:28;;;;;;;;;70.75;53.00;;;;;4.67;100.00;101744.84;4934804;28;46664;-81
2023/01/26 00:57:54;;;;;;;;;70.75;54.00;;;;;4.65;100.00;101750.03;4951645;28;45436;-82
2023/01/26 01:00:19;;;;;;;;;65.25;52.75;;;;;4.68;100.00;101750.19;4933178;28;45499;-82
2023/01/26 01:02:44;;;;;;;;;64.25;47.75;;;;;4.66;100.00;101750.94;4951485;28;45896;-82
2023/01/26 01:05:11;;;;;;;;;62.00;48.50;;;;;4.77;100.00;101750.69;4949535;28;45481;-81
2023/01/26 01:07:36;;;;;;;;;56.00;46.75;;;;;4.68;100.00;101744.91;4932563;28;45825;-82
2023/01/26 01:10:02;;;;;;;;;62.00;47.75;;;;;4.75;100.00;101752.34;4949401;28;45420;-82
2023/01/26 01:12:27;;;;;;;;;59.00;48.75;;;;;4.73;100.00;101734.66;4947874;28;45469;-82
2023/01/26 01:14:53;;;;;;;;;63.25;46.25;;;;;4.76;100.00;101735.69;4948226;28;45353;-82
2023/01/26 01:17:18;;;;;;;;;58.75;46.75;;;;;4.75;100.00;101730.38;4920912;28;45465;-82
2023/01/26 01:19:44;;;;;;;;;76.00;56.50;;;;;4.70;100.00;101729.19;4912902;28;45355;-82
2023/01/26 01:22:09;;;;;;;;;65.75;51.00;;;;;4.71;100.00;101733.66;4913325;28;45420;-83
2023/01/26 01:24:35;;;;;;;;;62.50;49.00;;;;;4.71;100.00;101733.66;4912273;28;46906;-84
2023/01/26 01:27:03;;;;;;;;;68.00;51.25;;;;;4.71;100.00;101729.28;4915114;28;45411;-82
2023/01/26 01:29:28;;;;;;;;;60.75;48.00;;;;;4.53;100.00;101718.66;4914482;28;45384;-83
2023/01/26 01:31:54;;;;;;;;;65.75;50.75;;;;;4.59;100.00;101729.53;4930247;28;45512;-83
2023/01/26 01:34:19;;;;;;;;;61.25;51.25;;;;;4.55;100.00;101717.00;4913290;28;46926;-83
2023/01/26 01:36:45;;;;;;;;;73.00;52.50;;;;;4.63;100.00;101724.44;4911935;28;45569;-83
2023/01/26 01:39:11;;;;;;;;;60.75;49.25;;;;;4.64;100.00;101715.69;4929632;28;45816;-83
2023/01/26 01:41:37;;;;;;;;;62.25;48.25;;;;;4.63;100.00;101724.44;4929799;28;45413;-82
2023/01/26 01:44:14;;;;;;;;;63.00;50.75;;;;;4.79;100.00;101724.44;4929589;28;45402;-82
2023/01/26 01:46:46;;;;;;;;;63.25;51.50;;;;;4.80;100.00;101728.84;4929753;28;45256;-82
2023/01/26 01:49:22;;;;;;;;;65.75;49.25;;;;;4.86;100.00;101731.81;4929759;28;45452;-83
2023/01/26 01:52:26;;;;;;;;;66.50;49.25;;;;;4.89;100.00;101729.38;4929083;28;45403;-83
2023/01/26 01:54:57;;;;;;;;;56.00;45.00;;;;;4.85;100.00;101727.38;4854000;29;47335;-83
2023/01/26 01:57:28;;;;;;;;;72.75;55.00;;;;;4.87;100.00;101719.53;4870123;29;45347;-83
2023/01/26 02:00:00;;;;;;;;;62.75;51.25;;;;;4.92;100.00;101716.31;4856713;29;45395;-83
2023/01/26 02:02:26;;;;;;;;;51.00;43.75;;;;;4.88;100.00;101717.00;4871458;29;45494;-83
2023/01/26 02:04:56;;;;;;;;;59.00;47.00;;;;;4.93;100.00;101704.97;4851843;29;47397;-82
2023/01/26 02:07:22;;;;;;;;;60.50;48.75;;;;;4.93;100.00;101710.25;4869593;29;45602;-83
2023/01/26 02:16:16;;;;;;;;;64.50;50.25;;;;;5.16;100.00;101716.69;4884569;29;45810;-83
2023/01/26 02:18:48;;;;;;;;;64.75;50.00;;;;;5.36;100.00;101711.56;4888348;29;46019;-83
2023/01/26 02:21:17;;;;;;;;;69.50;54.25;;;;;5.35;100.00;101717.63;4891459;29;45443;-83
2023/01/26 02:24:03;;;;;;;;;64.25;49.75;;;;;5.45;100.00;101709.38;4891777;29;45493;-83
2023/01/26 02:26:32;;;;;;;;;62.75;50.00;;;;;5.48;100.00;101711.28;4909302;29;45545;-83
2023/01/26 02:28:59;;;;;;;;;68.50;55.50;;;;;5.46;100.00;101712.94;4907824;29;45524;-83
2023/01/26 02:31:26;;;;;;;;;60.50;46.75;;;;;5.47;100.00;101706.81;4964344;28;45427;-83
2023/01/26 02:33:51;;;;;;;;;64.25;51.50;;;;;5.41;100.00;101696.84;4951709;28;45488;-83
2023/01/26 02:36:23;;;;;;;;;62.25;51.25;;;;;5.47;100.00;101694.50;4969183;28;45317;-83
2023/01/26 02:39:25;;;;;;;;;60.00;46.25;;;;;5.57;100.00;101701.16;4950410;28;44855;-82
2023/01/26 02:44:39;;;;;;;;;55.00;46.50;;;;;5.53;100.00;101694.81;4968803;28;45395;-83
2023/01/26 02:47:16;;;;;;;;;54.50;42.25;;;;;5.61;100.00;101684.66;4951002;28;47279;-83
2023/01/26 02:49:49;;;;;;;;;59.33;46.00;;;;;5.53;100.00;101680.72;4969098;28;45514;-83
2023/01/26 02:52:24;;;;;;;;;62.25;44.00;;;;;5.70;100.00;101684.22;4948793;28;45466;-83
2023/01/26 02:57:35;;;;;;;;;60.50;45.50;;;;;5.51;100.00;101682.38;4966510;28;45400;-83
2023/01/26 03:00:01;;;;;;;;;58.67;45.67;;;;;5.51;100.00;101674.47;4949313;28;45708;-83
2023/01/26 03:02:27;;;;;;;;;63.67;50.00;;;;;5.41;100.00;101665.19;4947793;28;45419;-83
2023/01/26 03:04:52;;;;;;;;;56.00;44.75;;;;;5.44;100.00;101672.38;4965128;28;45737;-83
2023/01/26 03:07:19;;;;;;;;;38.00;31.67;;;;;5.54;100.00;101679.91;4966528;28;45915;-83
2023/01/26 03:09:44;;;;;;;;;57.00;44.33;;;;;5.45;100.00;101658.34;4949432;28;45903;-83
2023/01/26 03:12:10;;;;;;;;;49.67;43.00;;;;;5.49;100.00;101666.47;4967484;28;45479;-82
2023/01/26 03:14:35;;;;;;;;;61.75;46.50;;;;;5.44;100.00;101669.75;4969537;28;45432;-83
2023/01/26 03:17:01;;;;;;;;;58.00;46.25;;;;;5.43;100.00;101673.19;4949105;28;48561;-82
2023/01/26 03:27:43;;;;;;;;;54.67;43.33;;;;;5.40;100.00;101659.00;4966137;28;44901;-83
2023/01/26 03:30:09;;;;;;;;;56.67;41.33;;;;;5.37;100.00;101665.88;4948938;28;45935;-83
2023/01/26 03:32:35;;;;;;;;;48.67;40.00;;;;;5.36;100.00;101666.72;4950414;28;45349;-81
2023/01/26 03:35:00;;;;;;;;;44.00;35.33;;;;;5.40;100.00;101653.75;4950453;28;45437;-82
2023/01/26 03:37:35;;;;;;;;;55.67;42.33;;;;;5.49;100.00;101648.00;4967707;28;46139;-82
2023/01/26 03:57:07;;;;;;;;;52.00;42.00;;;;;5.33;100.00;101632.25;4966690;28;45398;-83
2023/01/26 03:59:39;;;;;;;;;51.75;42.25;;;;;5.19;100.00;101623.66;4947256;28;47807;-82
2023/01/26 04:10:21;;;;;;;;;54.67;42.67;;;;;5.34;100.00;101637.63;4968085;28;45824;-83
2023/01/26 04:23:46;;;;;;;;;55.25;45.25;;;;;5.34;100.00;101636.72;4951249;28;45534;-81
2023/01/26 04:26:12;;;;;;;;;61.50;46.50;;;;;5.33;100.00;101632.25;4933711;28;45356;-81
2023/01/26 04:28:38;;;;;;;;;39.33;36.67;;;;;5.32;100.00;101625.19;4932948;28;45451;-82
2023/01/26 04:31:03;;;;;;;;;55.00;44.25;;;;;5.44;100.00;101630.16;4950361;28;45410;-83
2023/01/26 04:33:29;;;;;;;;;56.33;42.33;;;;;5.44;100.00;101624.88;4949576;28;45229;-83
2023/01/26 04:35:55;;;;;;;;;54.33;42.33;;;;;5.39;100.00;101625.56;4932507;28;45726;-82
2023/01/26 04:38:20;;;;;;;;;52.00;41.67;;;;;5.31;100.00;101624.28;4934920;28;45374;-82
2023/01/26 04:40:53;;;;;;;;;53.50;43.50;;;;;5.43;100.00;101630.97;4935582;28;47137;-82
2023/01/26 04:43:20;;;;;;;;;60.00;44.25;;;;;5.40;100.00;101635.28;4934847;28;45449;-82
2023/01/26 04:46:03;;;;;;;;;53.00;42.00;;;;;5.45;100.00;101639.88;4934635;28;45425;-82
2023/01/26 04:48:29;;;;;;;;;49.33;40.00;;;;;5.36;100.00;101638.59;4953906;28;45333;-82
2023/01/26 04:50:57;;;;;;;;;64.33;47.33;;;;;5.39;100.00;101630.84;4936263;28;47299;-82
2023/01/26 04:53:22;;;;;;;;;54.33;44.33;;;;;5.37;100.00;101621.03;4952568;28;45844;-83
2023/01/26 04:55:49;;;;;;;;;55.67;43.00;;;;;5.52;100.00;101634.09;4950097;28;45460;-82
2023/01/26 04:58:15;;;;;;;;;51.00;40.67;;;;;5.39;100.00;101644.03;4948818;28;44779;-82
2023/01/26 05:00:40;;;;;;;;;59.33;43.33;;;;;5.30;100.00;101626.84;4948883;28;45461;-81
2023/01/26 05:03:06;;;;;;;;;52.00;40.33;;;;;5.26;100.00;101630.16;4949459;28;45450;-82
2023/01/26 05:05:36;;;;;;;;;49.33;41.00;;;;;5.28;100.00;101623.22;4949549;28;45413;-83
2023/01/26 05:08:02;;;;;;;;;62.33;44.67;;;;;5.21;100.00;101632.53;4932694;28;45585;-82
2023/01/26 05:10:28;;;;;;;;;49.67;40.00;;;;;5.19;100.00;101639.47;4933051;28;47950;-82
2023/01/26 05:12:53;;;;;;;;;52.33;41.00;;;;;5.18;100.00;101630.66;4930944;28;45493;-82
2023/01/26 05:15:18;;;;;;;;;54.00;39.33;;;;;5.24;100.00;101637.09;4932035;28;45452;-81
2023/01/26 05:17:44;;;;;;;;;52.00;41.67;;;;;5.29;100.00;101641.78;4950251;28;45447;-82
2023/01/26 05:20:16;;;;;;;;;44.67;39.33;;;;;5.42;100.00;101638.00;4931310;28;48132;-82
2023/01/26 05:22:42;;;;;;;;;48.33;41.00;;;;;5.45;100.00;101637.22;4949194;28;45454;-83
2023/01/26 05:25:08;;;;;;;;;50.67;41.67;;;;;5.51;100.00;101638.44;4949417;28;45859;-82
2023/01/26 05:27:33;;;;;;;;;57.67;43.00;;;;;5.49;100.00;101633.91;4930797;28;45401;-82
2023/01/26 05:29:59;;;;;;;;;53.67;40.00;;;;;5.53;100.00;101639.41;4932793;28;48311;-82
2023/01/26 05:32:30;;;;;;;;;39.00;31.33;;;;;5.68;100.00;101639.28;4932193;28;45434;-82
2023/01/26 05:34:56;;;;;;;;;46.00;40.25;;;;;5.63;100.00;101643.41;4934800;28;45409;-82
2023/01/26 05:37:24;;;;;;;;;49.67;41.33;;;;;5.69;100.00;101632.25;4933898;28;45709;-82
2023/01/26 05:39:49;;;;;;;;;59.67;42.00;;;;;5.69;100.00;101638.44;4931181;28;48139;-82
2023/01/26 05:42:14;;;;;;;;;43.00;33.00;;;;;5.75;100.00;101648.38;4931612;28;45814;-82
2023/01/26 05:44:40;;;;;;;;;48.00;41.33;;;;;5.79;100.00;101642.41;4932569;28;45571;-81
2023/01/26 05:47:05;;;;;;;;;44.67;40.67;;;;;5.78;100.00;101636.25;4950581;28;45558;-81
2023/01/26 05:49:31;;;;;;;;;54.67;41.67;;;;;5.79;100.00;101640.66;4933863;28;47195;-82
2023/01/26 05:51:57;;;;;;;;;62.33;49.00;;;;;5.83;100.00;101641.72;4935051;28;45453;-82
2023/01/26 05:54:22;;;;;;;;;53.33;44.33;;;;;5.80;100.00;101647.78;4948956;28;45424;-82
2023/01/26 05:56:49;;;;;;;;;48.67;41.67;;;;;5.85;100.00;101641.81;4931027;28;45364;-81
2023/01/26 05:59:15;;;;;;;;;48.67;42.00;;;;;5.77;100.00;101637.06;4932596;28;47407;-81
2023/01/26 06:01:40;;;;;;;;;52.00;43.00;;;;;5.74;100.00;101634.28;4951831;28;45376;-81
2023/01/26 06:04:06;;;;;;;;;53.33;43.33;;;;;5.73;100.00;101623.66;4932552;28;45500;-83
2023/01/26 06:06:31;;;;;;;;;48.67;39.33;;;;;5.79;100.00;101640.66;4931833;28;45346;-82
2023/01/26 06:08:58;;;;;;;;;51.00;42.00;;;;;5.84;100.00;101642.63;4930875;28;47066;-82
2023/01/26 06:11:23;;;;;;;;;54.67;39.33;;;;;5.75;100.00;101629.91;4951394;28;45566;-83
2023/01/26 06:13:49;;;;;;;;;46.50;40.50;;;;;5.78;100.00;101644.16;4931667;28;44803;-81
2023/01/26 06:16:15;;;;;;;;;42.67;38.00;;;;;5.73;100.00;101640.38;4949644;28;45381;-82
2023/01/26 06:18:40;;;;;;;;;49.33;40.00;;;;;5.81;100.00;101649.56;4948206;28;45757;-82
2023/01/26 06:21:06;;;;;;;;;40.33;33.33;;;;;5.82;100.00;101635.56;4951080;28;45422;-83
2023/01/26 06:23:31;;;;;;;;;44.33;35.00;;;;;5.81;100.00;101639.00;4935450;28;45251;-82
2023/01/26 06:26:01;;;;;;;;;48.67;41.33;;;;;5.84;100.00;101643.56;4934496;28;45533;-82
2023/01/26 06:28:28;;;;;;;;;43.67;36.00;;;;;5.83;100.00;101639.09;4936453;28;46810;-82
2023/01/26 06:31:01;;;;;;;;;41.67;39.33;;;;;5.79;100.00;101635.38;4952145;28;45544;-82
2023/01/26 06:33:27;;;;;;;;;52.33;43.33;;;;;5.58;100.00;101642.28;4933547;28;45402;-82
2023/01/26 06:35:54;;;;;;;;;37.00;25.67;;;;;5.59;100.00;101638.81;4932979;28;45676;-82
2023/01/26 06:38:19;;;;;;;;;52.33;42.00;;;;;5.57;100.00;101622.91;4934241;28;47099;-81
2023/01/26 06:40:45;;;;;;;;;39.00;35.67;;;;;5.70;100.00;101637.59;4951822;28;45463;-81
2023/01/26 06:43:10;;;;;;;;;41.00;39.00;;;;;5.74;100.00;101642.19;4932879;28;45418;-82
2023/01/26 06:45:36;;;;;;;;;53.33;41.33;;;;;5.76;100.00;101645.81;4950648;28;45472;-82
2023/01/26 06:48:01;;;;;;;;;50.67;42.33;;;;;5.80;100.00;101646.88;4933388;28;47032;-82
2023/01/26 06:50:32;;;;;;;;;58.00;45.67;;;;;5.87;100.00;101646.31;4933020;28;45456;-82
2023/01/26 06:53:01;;;;;;;;;48.67;39.67;;;;;5.85;100.00;101650.63;4931547;28;45453;-82
2023/01/26 06:58:52;;;;;;;;;27.67;20.67;;;;;5.80;100.00;101644.25;4956449;28;45659;-82
2023/01/26 07:01:25;;;;;;;;;44.67;41.33;;;;;5.87;100.00;101641.03;4951331;28;44845;-82
2023/01/26 07:03:52;;;;;;;;;56.33;43.00;;;;;5.91;100.00;101650.03;4967660;28;45530;-82
2023/01/26 07:06:18;;;;;;;;;51.00;42.33;;;;;5.90;100.00;101653.47;4950388;28;45363;-82
2023/01/26 07:08:44;;;;;;;;;39.67;35.33;;;;;5.87;100.00;101651.59;4968774;28;45313;-83
2023/01/26 07:11:11;;;;;;;;;52.00;42.00;;;;;5.87;100.00;101645.44;4943187;28;45474;-82
2023/01/26 07:13:37;;;;;;;;;51.00;43.67;;;;;5.87;100.00;101654.25;4915932;28;45423;-82
2023/01/26 07:16:06;;;;;;;;;52.67;43.33;;;;;5.86;100.00;101651.53;4951114;28;45527;-82
2023/01/26 07:18:37;;;;;;;;;41.33;35.33;;;;;5.88;100.00;101653.44;4932647;28;46933;-82
2023/01/26 07:21:09;;;;;;;;;58.00;46.33;;;;;5.86;100.00;101656.81;4954317;28;45278;-82
2023/01/26 07:23:35;;;;;;;;;49.00;37.00;;;;;5.65;100.00;101640.84;4954252;28;45298;-83
2023/01/26 07:26:01;;;;;;;;;51.00;42.67;;;;;5.73;100.00;101665.88;4937549;28;44867;-83
2023/01/26 07:28:38;;;;;;;;;51.33;42.67;;;;;5.70;100.00;101666.63;4944998;28;47162;-81
2023/01/26 07:31:06;;;;;;;;;55.25;46.25;;;;;5.60;100.00;101635.34;4938495;28;45476;-82
2023/01/26 07:33:33;;;;;;;;;68.25;54.00;;;;;5.66;100.00;101658.50;4935100;28;45541;-82
2023/01/26 07:36:02;;;;;;;;;61.75;47.00;;;;;5.68;100.00;101651.56;4934399;28;45286;-82
2023/01/26 07:38:28;;;;;;;;;54.00;44.00;;;;;5.65;100.00;101654.94;4956735;28;45511;-82
2023/01/26 07:40:55;;;;;;;;;73.25;53.00;;;;;5.68;100.00;101657.75;4951235;28;45365;-82
2023/01/26 07:43:21;;;;;;;;;64.00;47.50;;;;;5.70;100.00;101669.28;4952678;28;45407;-81
2023/01/26 07:45:50;;;;;;;;;53.67;41.33;;;;;5.51;100.00;101621.69;4952316;28;45616;-82
2023/01/26 07:48:16;;;;;;;;;58.75;44.75;;;;;5.67;100.00;101655.03;4966301;28;46199;-82
2023/01/26 07:50:44;;;;;;;;;64.50;50.00;;;;;5.58;100.00;101634.38;4964999;28;45332;-82
2023/01/26 07:53:11;;;;;;;;;50.67;43.67;;;;;5.86;100.00;101668.28;4935571;28;45382;-82
2023/01/26 07:55:37;;;;;;;;;57.25;47.50;;;;;5.88;100.00;101671.91;4967370;28;45474;-82
2023/01/26 07:58:03;;;;;;;;;49.00;41.00;;;;;5.92;100.00;101678.25;4973372;28;45452;-81
2023/01/26 08:00:28;;;;;;;;;47.00;38.67;;;;;5.86;100.00;101665.66;4969977;28;45443;-81
2023/01/26 08:02:58;;;;;;;;;75.75;58.75;;;;;5.93;100.00;101680.03;4947017;28;45362;-83
2023/01/26 08:05:24;;;;;;;;;86.75;69.25;;;;;5.92;100.00;101667.69;4970790;28;45503;-83
2023/01/26 08:07:51;;;;;;;;;69.25;55.75;;;;;5.98;100.00;101668.91;4950664;28;46724;-83
2023/01/26 08:10:17;;;;;;;;;79.25;59.50;;;;;5.84;100.00;101662.03;4954610;28;45476;-83
2023/01/26 08:12:42;;;;;;;;;60.25;47.25;;;;;5.92;100.00;101665.03;4954695;28;45378;-83
2023/01/26 08:15:09;;;;;;;;;63.00;50.25;;;;;6.13;100.00;101684.56;4954038;28;45351;-83
2023/01/26 08:17:35;;;;;;;;;55.50;45.75;;;;;6.13;100.00;101683.66;4951664;28;47685;-83
2023/01/26 08:20:07;;;;;;;;;50.67;37.33;;;;;6.26;100.00;101690.41;4937343;28;44935;-82
2023/01/26 08:22:33;;;;;;;;;47.75;39.50;;;;;6.10;100.00;101689.72;4933753;28;45341;-81
2023/01/26 08:24:58;;;;;;;;;56.75;46.50;;;;;6.10;100.00;101697.63;4933449;28;45673;-83
2023/01/26 08:27:24;;;;;;;;;63.50;47.75;;;;;6.01;100.00;101689.25;4953378;28;45441;-82
2023/01/26 08:29:50;;;;;;;;;56.00;45.50;;;;;5.97;100.00;101706.69;4957098;28;45446;-82
2023/01/26 08:32:15;;;;;;;;;69.75;52.00;;;;;6.02;100.00;101717.50;4955189;28;45379;-84
2023/01/26 08:38:03;;;;;;;;;64.25;52.50;;;;;6.14;100.00;101702.22;4969683;28;45329;-81
2023/01/26 08:40:29;;;;;;;;;51.00;38.75;;;;;6.18;100.00;101719.09;4966780;28;45312;-81
2023/01/26 08:42:54;;;;;;;;;53.75;43.00;;;;;6.23;100.00;101719.34;4937324;28;45574;-83
2023/01/26 08:45:21;;;;;;;;;54.00;43.00;;;;;6.36;100.00;101724.34;4952791;28;45247;-83
2023/01/26 08:47:51;;;;;;;;;57.25;45.25;;;;;6.39;100.00;101720.13;4939078;28;48080;-81
2023/01/26 08:53:39;;;;;;;;;62.67;44.67;;;;;6.31;100.00;101715.31;4965514;28;44939;-82
2023/01/26 08:56:06;;;;;;;;;45.33;41.33;;;;;6.46;100.00;101737.16;4952849;28;45398;-81
2023/01/26 08:58:32;;;;;;;;;54.25;45.00;;;;;6.40;100.00;101734.22;4969821;28;45455;-81
2023/01/26 09:00:58;;;;;;;;;65.00;53.00;;;;;6.39;100.00;101735.97;4950822;28;45458;-80
2023/01/26 09:06:46;;;;;;;;;49.00;43.00;;;;;6.35;100.00;101734.03;4973734;28;45549;-81
2023/01/26 09:09:13;;;;;;;;;65.75;52.00;;;;;6.30;100.00;101719.72;4972239;28;46290;-82
2023/01/26 09:11:39;;;;;;;;;64.50;49.75;;;;;6.35;100.00;101734.03;4960945;28;45467;-81
2023/01/26 09:14:05;;;;;;;;;54.25;45.75;;;;;6.34;100.00;101736.59;4949508;28;46224;-80
2023/01/26 09:16:30;;;;;;;;;61.00;51.75;;;;;6.35;100.00;101735.78;4953092;28;45497;-82
2023/01/26 09:18:56;;;;;;;;;61.50;48.75;;;;;6.36;100.00;101737.56;4962548;28;45260;-81
2023/01/26 09:21:27;;;;;;;;;64.75;51.75;;;;;6.35;100.00;101748.97;4949780;28;45410;-82
2023/01/26 09:23:57;;;;;;;;;61.50;49.25;;;;;6.36;100.00;101742.84;4949434;28;44847;-82
2023/01/26 09:26:23;;;;;;;;;67.25;51.50;;;;;6.36;100.00;101756.06;4924585;28;45611;-82
2023/01/26 09:28:50;;;;;;;;;58.33;49.33;;;;;6.44;100.00;101743.22;4951702;28;46286;-82
2023/01/26 09:31:15;;;;;;;;;64.00;48.67;;;;;6.44;100.00;101737.94;4954116;28;45437;-81
2023/01/26 09:33:41;;;;;;;;;60.00;47.33;;;;;6.55;100.00;101752.56;4945855;28;45498;-81
2023/01/26 09:36:09;;;;;;;;;61.25;48.75;;;;;6.61;100.00;101740.53;4935385;28;45498;-82
2023/01/26 09:38:36;;;;;;;;;62.25;52.50;;;;;6.66;100.00;101756.59;4934678;28;46853;-81
2023/01/26 09:41:46;;;;;;;;;59.50;48.25;;;;;6.75;100.00;101758.78;4932036;28;45428;-81
2023/01/26 09:44:19;;;;;;;;;71.00;58.50;;;;;6.67;100.00;101763.72;4860153;29;45504;-81
2023/01/26 09:47:29;;;;;;;;;81.00;63.00;;;;;6.73;100.00;101764.00;4893297;29;44962;-82
2023/01/26 09:50:37;;;;;;;;;76.75;62.25;;;;;6.76;100.00;101761.47;4893439;29;46820;-82
2023/01/26 09:53:11;;;;;;;;;69.50;53.00;;;;;6.63;100.00;101755.56;4914823;28;45373;-80
2023/01/26 09:56:03;;;;;;;;;74.75;57.50;;;;;6.57;100.00;101767.66;4896400;29;45389;-82
2023/01/26 09:58:38;;;;;;;;;77.25;60.25;;;;;6.39;100.00;101762.41;4895464;29;45427;-82
2023/01/26 10:01:13;;;;;;;;;72.50;57.00;;;;;6.45;100.00;101756.50;4911216;29;45435;-82
2023/01/26 10:03:46;;;;;;;;;55.50;45.50;;;;;6.58;100.00;101763.25;4887579;29;45315;-82
2023/01/26 10:06:31;;;;;;;;;65.75;50.00;;;;;6.69;100.00;101766.44;4910891;29;45470;-82
2023/01/26 10:09:31;;;;;;;;;79.00;58.75;;;;;6.76;100.00;101763.22;4894672;29;45425;-83
2023/01/26 10:12:05;;;;;;;;;57.25;48.75;;;;;6.77;100.00;101765.03;4887943;29;48051;-83
2023/01/26 10:15:00;;;;;;;;;57.00;47.00;;;;;6.75;100.00;101756.13;4912639;29;45402;-82
2023/01/26 10:17:38;;;;;;;;;56.00;43.00;;;;;6.95;100.00;101771.16;4897399;29;44876;-82
2023/01/26 10:20:14;;;;;;;;;59.75;46.00;;;;;6.88;100.00;101771.72;4917397;28;45520;-82
2023/01/26 10:22:48;;;;;;;;;41.67;34.67;;;;;7.00;100.00;101758.13;4972164;28;46190;-83
2023/01/26 10:25:34;;;;;;;;;57.75;46.00;;;;;7.17;100.00;101766.81;4949238;28;45485;-83
2023/01/26 10:30:50;;;;;;;;;52.50;42.00;;;;;7.16;100.00;101767.66;5189528;23;46836;-80
2023/01/26 10:33:24;;;;;;;;;51.25;41.75;;;;;7.22;100.00;101770.59;4950431;28;47868;-82
2023/01/26 10:35:49;;;;;;;;;55.25;45.25;;;;;7.20;100.00;101772.25;4959744;28;45008;-80
2023/01/26 10:38:36;;;;;;;;;47.33;39.33;;;;;7.28;100.00;101769.97;4961674;28;45366;-83
2023/01/26 10:44:01;;;;;;;;;55.50;44.75;;;;;7.25;100.00;101761.88;5051049;23;47219;-83
2023/01/26 10:46:45;;;;;;;;;42.00;35.25;;;;;7.26;100.00;101761.94;4988521;28;45468;-82
2023/01/26 10:49:11;;;;;;;;;45.33;40.33;;;;;7.22;100.00;101758.25;4993532;28;45797;-84
2023/01/26 10:52:22;;;;;;;;;50.33;41.33;;;;;7.39;100.00;101755.44;4994534;28;44801;-84
2023/01/26 10:55:12;;;;;;;;;40.67;35.67;;;;;7.04;100.00;101719.50;4998867;28;45523;-83
2023/01/26 10:57:40;;;;;;;;;55.75;42.25;;;;;7.03;100.00;101742.41;4990521;28;45393;-83
2023/01/26 11:00:23;;;;;;;;;46.67;41.00;;;;;6.99;100.00;101725.50;4987391;28;45455;-83
2023/01/26 11:02:56;;;;;;;;;40.67;38.33;;;;;7.31;100.00;101754.19;4995961;28;44912;-82
2023/01/26 11:05:29;;;;;;;;;36.00;30.67;;;;;7.45;100.00;101728.34;4975361;28;45527;-83
2023/01/26 11:08:02;;;;;;;;;49.33;42.67;;;;;7.46;100.00;101728.41;4974289;28;45413;-82
2023/01/26 11:10:37;;;;;;;;;57.67;46.33;;;;;7.26;100.00;101708.13;4973838;28;45646;-82
2023/01/26 11:13:08;;;;;;;;;54.33;42.67;;;;;7.36;100.00;101748.28;4993663;28;45390;-82
2023/01/26 11:15:47;;;;;;;;;51.33;43.67;;;;;7.36;100.00;101742.97;5003228;28;45210;-83
2023/01/26 11:18:16;;;;;;;;;49.33;39.00;;;;;7.30;100.00;101736.53;4993423;28;45427;-82
2023/01/26 11:21:16;;;;;;;;;64.33;48.00;;;;;7.47;100.00;101734.59;4980435;28;45301;-81
2023/01/26 11:23:56;;;;;;;;;58.50;46.75;;;;;7.53;100.00;101729.56;4993598;28;45529;-81
2023/01/26 11:26:34;;;;;;;;;50.00;41.33;;;;;7.61;100.00;101731.72;4997189;28;46713;-83
2023/01/26 11:29:35;;;;;;;;;56.00;45.25;;;;;7.70;100.00;101733.81;4994139;28;45497;-82
2023/01/26 11:32:16;;;;;;;;;51.00;41.67;;;;;7.66;100.00;101726.59;4933757;28;45608;-82
2023/01/26 11:35:08;;;;;;;;;57.00;44.67;;;;;7.72;100.00;101721.56;4936546;28;45673;-81
2023/01/26 11:37:40;;;;;;;;;52.00;42.00;;;;;7.78;100.00;101727.09;4916269;28;47320;-81
2023/01/26 11:40:25;;;;;;;;;53.33;44.33;;;;;7.84;100.00;101722.88;4912508;28;45430;-83
2023/01/26 11:43:11;;;;;;;;;53.00;41.33;;;;;7.86;100.00;101723.84;4918521;28;45588;-82
2023/01/26 11:46:01;;;;;;;;;47.67;41.00;;;;;7.80;100.00;101719.22;4934771;28;45408;-82
2023/01/26 11:48:57;;;;;;;;;52.00;38.67;;;;;7.72;100.00;101721.56;4916323;28;46846;-82
2023/01/26 11:52:08;;;;;;;;;58.00;46.67;;;;;7.62;100.00;101724.66;4916853;28;45508;-82
2023/01/26 11:55:13;;;;;;;;;58.33;46.33;;;;;7.61;100.00;101730.78;4910748;28;45531;-81
2023/01/26 11:58:05;;;;;;;;;33.67;32.67;;;;;7.53;100.00;101724.25;4906637;28;45753;-83
2023/01/26 12:00:39;;;;;;;;;37.00;34.67;;;;;7.37;100.00;101731.56;4887506;29;47244;-85
2023/01/26 12:03:16;;;;;;;;;75.25;60.75;;;;;7.24;100.00;101717.75;4858360;29;45577;-77
2023/01/26 12:05:48;;;;;;;;;69.25;55.75;;;;;7.21;100.00;101713.19;4869857;29;45456;-80
2023/01/26 12:08:25;;;;;;;;;55.33;42.67;;;;;7.22;100.00;101722.97;4898369;29;45455;-78
2023/01/26 12:10:53;;;;;;;;;65.50;53.25;;;;;7.29;100.00;101726.75;4879079;29;45539;-75
2023/01/26 12:13:30;;;;;;;;;42.67;40.67;;;;;7.14;100.00;101719.97;4894252;29;45383;-76
2023/01/26 12:16:05;;;;;;;;;51.00;42.67;;;;;7.26;100.00;101711.66;4892569;29;45502;-75
2023/01/26 12:18:44;;;;;;;;;51.25;45.75;;;;;7.32;100.00;101709.28;4896143;29;45478;-76
2023/01/26 12:21:12;;;;;;;;;47.00;40.33;;;;;7.29;100.00;101705.59;4903090;29;45497;-77
2023/01/26 12:23:55;;;;;;;;;15.67;11.00;;;;;7.31;100.00;101707.50;4917401;29;45356;-75
2023/01/26 12:26:23;;;;;;;;;55.67;44.00;;;;;7.25;100.00;101704.59;4905179;29;45455;-76
2023/01/26 12:29:04;;;;;;;;;45.33;40.33;;;;;7.24;100.00;101702.75;4877359;29;45510;-75
2023/01/26 12:31:46;;;;;;;;;35.00;29.00;;;;;7.07;100.00;101682.59;4904595;29;45469;-77
2023/01/26 12:34:12;;;;;;;;;34.67;31.00;;;;;6.96;100.00;101690.06;4900632;29;45462;-77
2023/01/26 12:37:29;;;;;;;;;27.67;23.33;;;;;7.00;100.00;101684.09;4899463;28;45743;-82
2023/01/26 12:40:21;;;;;;;;;27.33;24.33;;;;;6.90;100.00;101687.16;4922449;28;45517;-79
2023/01/26 12:43:02;;;;;;;;;22.67;22.67;;;;;6.90;100.00;101677.47;4910966;28;46748;-83